createdAt,value
2019-02-08T00:03:10.665Z,49.94
2019-02-08T00:08:12.370Z,51.05
2019-02-08T00:13:14.434Z,50.99
2019-02-08T00:18:16.401Z,50.79
2019-02-08T00:23:26.355Z,51.05
2019-02-08T00:28:22.110Z,51.07
2019-02-08T00:33:23.710Z,51.09
2019-02-08T00:38:25.347Z,51.76
2019-02-08T00:43:26.972Z,51.53
2019-02-08T00:48:28.672Z,51.37
2019-02-08T00:53:33.598Z,51.40
2019-02-08T00:58:33.949Z,52.00
2019-02-08T01:03:35.713Z,52.30
2019-02-08T01:08:37.932Z,52.13
2019-02-08T01:13:39.580Z,52.20
2019-02-08T01:18:41.232Z,52.05
2019-02-08T01:23:42.792Z,52.69
2019-02-08T01:28:44.397Z,53.44
2019-02-08T01:33:46.124Z,53.65
2019-02-08T01:38:47.730Z,53.85
2019-02-08T01:43:49.652Z,53.73
2019-02-08T01:48:51.323Z,54.01
2019-02-08T01:53:52.882Z,54.68
2019-02-08T01:58:54.528Z,54.70
2019-02-08T02:03:56.191Z,55.24
2019-02-08T02:08:57.885Z,55.04
2019-02-08T02:13:59.576Z,54.98
2019-02-08T02:19:01.342Z,55.38
2019-02-08T02:24:03.613Z,54.70
2019-02-08T02:29:05.416Z,55.52
2019-02-08T02:34:07.145Z,55.51
2019-02-08T02:39:09.801Z,54.84
2019-02-08T02:44:11.814Z,55.20
2019-02-08T02:49:13.508Z,55.41
2019-02-08T02:54:15.077Z,54.74
2019-02-08T02:59:17.039Z,54.94
2019-02-08T03:04:18.601Z,55.99
2019-02-08T03:09:20.289Z,55.98
2019-02-08T03:14:21.841Z,56.84
2019-02-08T03:19:23.454Z,56.55
2019-02-08T03:24:25.017Z,57.27
2019-02-08T03:29:26.815Z,57.53
2019-02-08T03:34:28.621Z,57.16
2019-02-08T03:39:30.286Z,57.55
2019-02-08T03:44:32.155Z,58.06
2019-02-08T03:49:33.761Z,58.62
2019-02-08T03:54:35.322Z,58.78
2019-02-08T03:59:36.882Z,58.22
2019-02-08T04:04:39.048Z,57.91
2019-02-08T04:09:40.605Z,57.04
2019-02-08T04:14:42.378Z,56.42
2019-02-08T04:19:44.080Z,57.17
2019-02-08T04:24:45.645Z,57.87
2019-02-08T04:29:47.238Z,56.95
2019-02-08T04:34:48.857Z,55.77
2019-02-08T04:39:50.417Z,56.11
2019-02-08T04:44:51.976Z,56.86
2019-02-08T04:49:53.614Z,56.17
2019-02-08T04:54:55.284Z,56.29
2019-02-08T04:59:56.847Z,55.54
2019-02-08T05:04:58.512Z,59.19
2019-02-08T05:10:00.336Z,59.22
2019-02-08T05:15:03.342Z,59.63
2019-02-08T05:20:21.005Z,60.28
2019-02-08T05:25:23.140Z,60.36
2019-02-08T05:30:34.096Z,59.82
2019-02-08T05:35:35.824Z,59.10
2019-02-08T05:40:37.792Z,59.70
2019-02-08T05:45:39.364Z,59.13
2019-02-08T05:50:40.977Z,58.42
2019-02-08T05:55:42.532Z,57.48
2019-02-08T06:00:46.896Z,57.39
2019-02-08T06:05:50.265Z,58.35
2019-02-08T06:10:51.929Z,57.58
2019-02-08T06:15:53.495Z,57.86
2019-02-08T06:20:55.102Z,57.95
2019-02-08T06:25:56.897Z,58.13
2019-02-08T06:30:58.455Z,58.88
2019-02-08T06:36:00.079Z,58.43
2019-02-08T06:41:01.640Z,58.69
2019-02-08T06:46:03.357Z,58.69
2019-02-08T06:51:05.150Z,58.60
2019-02-08T06:56:08.733Z,57.39
2019-02-08T07:01:30.143Z,57.44
2019-02-08T07:06:39.273Z,57.49
2019-02-08T07:11:42.749Z,57.83
2019-02-08T07:16:55.344Z,56.85
2019-02-08T07:22:15.500Z,57.47
2019-02-08T07:27:21.645Z,58.05
2019-02-08T07:32:41.889Z,58.76
2019-02-08T07:37:46.029Z,58.38
2019-02-08T07:42:48.539Z,60.24
2019-02-08T07:47:55.307Z,60.54
2019-02-08T07:53:03.693Z,60.00
2019-02-08T07:58:10.019Z,59.77
2019-02-08T08:03:14.477Z,59.85
2019-02-08T08:08:16.342Z,60.21
2019-02-08T08:13:22.476Z,60.24
2019-02-08T08:18:43.449Z,60.43
2019-02-08T08:23:56.069Z,61.35
2019-02-08T08:29:04.329Z,60.93
2019-02-08T08:34:11.609Z,61.04
2019-02-08T08:39:24.941Z,60.41
2019-02-08T08:44:32.203Z,60.08
2019-02-08T08:50:05.054Z,61.15
2019-02-08T08:55:42.016Z,61.10
2019-02-08T09:01:04.962Z,60.00
2019-02-08T09:06:21.566Z,60.31
2019-02-08T09:12:14.281Z,61.02
2019-02-08T09:17:48.805Z,61.24
2019-02-08T09:23:08.235Z,61.30
2019-02-08T09:28:55.803Z,61.45
2019-02-08T09:34:41.345Z,62.08
2019-02-08T09:40:08.783Z,62.37
2019-02-08T09:45:34.036Z,62.67
2019-02-08T09:50:47.232Z,62.60
2019-02-08T09:56:09.851Z,60.72
2019-02-08T10:01:43.327Z,60.12
2019-02-08T10:07:13.831Z,57.99
2019-02-08T10:12:44.945Z,57.91
2019-02-08T10:18:17.951Z,55.99
2019-02-08T10:23:59.966Z,56.36
2019-02-08T10:29:27.503Z,57.65
2019-02-08T10:34:55.909Z,57.26
2019-02-08T10:40:41.824Z,57.39
2019-02-08T10:46:36.261Z,56.15
2019-02-08T10:52:21.822Z,55.14
2019-02-08T10:57:46.283Z,53.90
2019-02-08T11:03:30.962Z,52.12
2019-02-08T11:09:11.998Z,53.47
2019-02-08T11:15:00.906Z,50.85
2019-02-08T11:20:06.480Z,50.47
2019-02-08T11:25:08.750Z,51.07
2019-02-08T11:30:16.378Z,49.73
2019-02-08T11:35:18.481Z,47.13
2019-02-08T11:40:24.133Z,46.41
2019-02-08T11:45:25.830Z,44.65
2019-02-08T11:50:27.744Z,44.66
2019-02-08T11:55:29.660Z,44.50
2019-02-08T12:00:42.366Z,43.74
2019-02-08T12:05:44.542Z,44.04
2019-02-08T12:10:46.231Z,44.75
2019-02-08T12:15:47.918Z,44.52
2019-02-08T12:20:49.661Z,43.52
2019-02-08T12:25:51.327Z,43.54
2019-02-08T12:30:53.206Z,43.37
2019-02-08T12:35:55.277Z,43.68
2019-02-08T12:40:57.092Z,42.62
2019-02-08T12:45:58.790Z,42.52
2019-02-08T12:51:02.595Z,40.22
2019-02-08T12:56:05.288Z,41.52
2019-02-08T13:01:07.333Z,40.01
2019-02-08T13:06:09.693Z,39.16
2019-02-08T13:11:11.363Z,38.92
2019-02-08T13:16:14.087Z,38.90
2019-02-08T13:21:15.699Z,38.84
2019-02-08T13:26:17.392Z,38.04
2019-02-08T13:31:19.010Z,37.72
2019-02-08T13:36:21.494Z,37.90
2019-02-08T13:41:23.284Z,37.03
2019-02-08T13:46:24.900Z,37.26
2019-02-08T13:51:26.536Z,37.37
2019-02-08T13:56:28.105Z,38.88
2019-02-08T14:01:29.788Z,39.33
2019-02-08T14:06:31.363Z,39.80
2019-02-08T14:11:33.149Z,40.29
2019-02-08T14:16:34.971Z,40.49
2019-02-08T14:21:36.571Z,40.75
2019-02-08T14:26:38.183Z,41.88
2019-02-08T14:31:39.818Z,42.84
2019-02-08T14:36:41.768Z,44.08
2019-02-08T14:41:43.583Z,44.77
2019-02-08T14:46:45.577Z,44.78
2019-02-08T14:51:47.570Z,44.76
2019-02-08T14:56:49.262Z,45.30
2019-02-08T15:01:51.445Z,45.77
2019-02-08T15:06:53.534Z,46.49
2019-02-08T15:11:55.239Z,47.14
2019-02-08T15:16:56.849Z,47.64
2019-02-08T15:21:58.409Z,48.85
2019-02-08T15:27:01.181Z,49.05
2019-02-08T15:32:03.066Z,48.88
2019-02-08T15:37:05.994Z,49.81
2019-02-08T15:42:08.210Z,50.31
2019-02-08T15:47:09.918Z,50.87
2019-02-08T15:52:11.530Z,51.19
2019-02-08T15:57:13.101Z,52.27
2019-02-08T16:02:14.885Z,53.23
2019-02-08T16:07:17.868Z,53.52
2019-02-08T16:12:19.424Z,53.79
2019-02-08T16:17:21.225Z,54.40
2019-02-08T16:22:22.941Z,54.78
2019-02-08T16:27:24.509Z,54.62
2019-02-08T16:32:26.109Z,54.81
2019-02-08T16:37:27.780Z,55.02
2019-02-08T16:42:29.421Z,55.99
2019-02-08T16:47:31.084Z,56.34
2019-02-08T16:52:32.720Z,57.03
2019-02-08T16:57:34.285Z,56.75
2019-02-08T17:02:37.419Z,56.87
2019-02-08T17:07:39.099Z,57.16
2019-02-08T17:12:41.135Z,57.70
2019-02-08T17:17:42.708Z,57.04
2019-02-08T17:22:44.694Z,57.80
2019-02-08T17:27:55.006Z,57.87
2019-02-08T17:32:51.668Z,58.99
2019-02-08T17:37:53.358Z,58.54
2019-02-08T17:42:55.111Z,59.37
2019-02-08T17:47:59.085Z,59.27
2019-02-08T17:53:04.606Z,58.96
2019-02-08T17:58:06.389Z,58.51
2019-02-08T18:03:08.055Z,59.11
2019-02-08T18:08:11.486Z,59.47
2019-02-08T18:13:14.052Z,59.83
2019-02-08T18:18:16.724Z,59.59
2019-02-08T18:23:19.529Z,59.44
2019-02-08T18:28:21.195Z,59.61
2019-02-08T18:33:22.994Z,61.21
2019-02-08T18:38:24.565Z,62.60
2019-02-08T18:43:26.293Z,63.11
2019-02-08T18:48:27.993Z,63.37
2019-02-08T18:53:29.651Z,64.52
2019-02-08T18:58:32.496Z,63.34
2019-02-08T19:03:34.250Z,64.75
2019-02-08T19:08:35.868Z,64.43
2019-02-08T19:13:37.437Z,63.59
2019-02-08T19:18:39.209Z,64.93
2019-02-08T19:23:40.806Z,64.62
2019-02-08T19:28:42.701Z,65.41
2019-02-08T19:33:44.334Z,65.30
2019-02-08T19:38:46.042Z,66.01
2019-02-08T19:43:48.775Z,65.96
2019-02-08T19:48:50.365Z,66.14
2019-02-08T19:53:52.002Z,66.35
2019-02-08T19:58:53.608Z,66.10
2019-02-08T20:03:55.184Z,66.92
2019-02-08T20:08:56.767Z,67.33
2019-02-08T20:13:58.629Z,67.89
2019-02-08T20:19:00.188Z,67.75
2019-02-08T20:24:02.178Z,68.45
2019-02-08T20:29:03.946Z,68.12
2019-02-08T20:34:05.956Z,68.08
2019-02-08T20:39:09.332Z,68.45
2019-02-08T20:44:12.731Z,68.42
2019-02-08T20:49:14.395Z,68.85
2019-02-08T20:54:15.984Z,69.21
2019-02-08T20:59:17.667Z,69.33
2019-02-08T21:04:19.220Z,69.10
2019-02-08T21:09:21.003Z,69.07
2019-02-08T21:14:22.714Z,69.21
2019-02-08T21:19:24.291Z,69.45
2019-02-08T21:24:25.962Z,69.46
2019-02-08T21:29:27.579Z,69.53
2019-02-08T21:34:29.194Z,69.16
2019-02-08T21:39:30.897Z,68.84
2019-02-08T21:44:32.710Z,68.99
2019-02-08T21:49:34.482Z,69.00
2019-02-08T21:54:36.147Z,69.08
2019-02-08T21:59:37.847Z,68.81
2019-02-08T22:04:39.521Z,68.91
2019-02-08T22:09:41.406Z,69.54
2019-02-08T22:14:43.309Z,69.28
2019-02-08T22:19:44.877Z,69.43
2019-02-08T22:24:46.445Z,69.29
2019-02-08T22:29:48.005Z,69.10
2019-02-08T22:34:49.919Z,69.15
2019-02-08T22:39:51.593Z,69.52
2019-02-08T22:44:54.574Z,69.54
2019-02-08T22:49:56.275Z,69.74
2019-02-08T22:54:57.813Z,69.81
2019-02-08T22:59:59.405Z,69.35
2019-02-08T23:05:01.277Z,69.51
2019-02-08T23:10:08.144Z,69.75
2019-02-08T23:15:10.410Z,70.05
2019-02-08T23:20:12.485Z,70.05
2019-02-08T23:25:14.364Z,70.09
2019-02-08T23:30:19.966Z,70.34
2019-02-08T23:35:21.604Z,69.84
2019-02-08T23:40:23.171Z,69.55
2019-02-08T23:45:25.141Z,69.14
2019-02-08T23:50:26.807Z,68.97
2019-02-08T23:55:28.674Z,68.58
